sensor_id;sensor_type;location;lat;lon;timestamp;temperature;humidity
70366;DHT22;57787;48.216;12.396;2022-08-19T00:01:24;19.20;82.70
70366;DHT22;57787;48.216;12.396;2022-08-19T00:03:56;19.20;82.40
70366;DHT22;57787;48.216;12.396;2022-08-19T00:06:23;19.30;82.70
70366;DHT22;57787;48.216;12.396;2022-08-19T00:08:50;19.30;82.60
70366;DHT22;57787;48.216;12.396;2022-08-19T00:11:19;19.30;82.40
70366;DHT22;57787;48.216;12.396;2022-08-19T00:13:51;19.30;82.50
70366;DHT22;57787;48.216;12.396;2022-08-19T00:16:18;19.30;82.20
70366;DHT22;57787;48.216;12.396;2022-08-19T00:18:51;19.30;82.40
70366;DHT22;57787;48.216;12.396;2022-08-19T00:21:18;19.30;82.20
70366;DHT22;57787;48.216;12.396;2022-08-19T00:23:45;19.40;81.80
70366;DHT22;57787;48.216;12.396;2022-08-19T00:26:12;19.40;82.00
70366;DHT22;57787;48.216;12.396;2022-08-19T00:28:40;19.40;82.10
70366;DHT22;57787;48.216;12.396;2022-08-19T00:31:07;19.40;81.80
70366;DHT22;57787;48.216;12.396;2022-08-19T00:33:35;19.30;82.20
70366;DHT22;57787;48.216;12.396;2022-08-19T00:36:03;19.30;82.10
70366;DHT22;57787;48.216;12.396;2022-08-19T00:38:31;19.30;81.90
70366;DHT22;57787;48.216;12.396;2022-08-19T00:41:04;19.30;82.50
70366;DHT22;57787;48.216;12.396;2022-08-19T00:43:31;19.30;82.60
70366;DHT22;57787;48.216;12.396;2022-08-19T00:45:58;19.20;82.40
70366;DHT22;57787;48.216;12.396;2022-08-19T00:48:25;19.20;82.70
70366;DHT22;57787;48.216;12.396;2022-08-19T00:50:52;19.20;82.20
70366;DHT22;57787;48.216;12.396;2022-08-19T00:53:22;19.20;83.10
70366;DHT22;57787;48.216;12.396;2022-08-19T00:55:50;19.20;82.80
70366;DHT22;57787;48.216;12.396;2022-08-19T00:58:19;19.10;82.80
70366;DHT22;57787;48.216;12.396;2022-08-19T01:00:46;19.10;82.60
70366;DHT22;57787;48.216;12.396;2022-08-19T01:03:16;19.10;83.00
70366;DHT22;57787;48.216;12.396;2022-08-19T01:05:45;19.10;83.20
70366;DHT22;57787;48.216;12.396;2022-08-19T01:08:12;19.10;83.00
70366;DHT22;57787;48.216;12.396;2022-08-19T01:10:42;19.10;83.20
70366;DHT22;57787;48.216;12.396;2022-08-19T01:13:09;19.10;83.30
70366;DHT22;57787;48.216;12.396;2022-08-19T01:15:40;19.10;83.30
70366;DHT22;57787;48.216;12.396;2022-08-19T01:18:09;19.10;83.00
70366;DHT22;57787;48.216;12.396;2022-08-19T01:20:36;19.20;83.10
70366;DHT22;57787;48.216;12.396;2022-08-19T01:23:03;19.20;83.50
70366;DHT22;57787;48.216;12.396;2022-08-19T01:25:31;19.20;82.90
70366;DHT22;57787;48.216;12.396;2022-08-19T01:27:59;19.20;83.20
70366;DHT22;57787;48.216;12.396;2022-08-19T01:30:36;19.30;83.30
70366;DHT22;57787;48.216;12.396;2022-08-19T01:33:03;19.30;83.00
70366;DHT22;57787;48.216;12.396;2022-08-19T01:35:31;19.30;83.00
70366;DHT22;57787;48.216;12.396;2022-08-19T01:38:00;19.30;83.20
70366;DHT22;57787;48.216;12.396;2022-08-19T01:40:28;19.30;83.00
70366;DHT22;57787;48.216;12.396;2022-08-19T01:42:56;19.30;83.30
70366;DHT22;57787;48.216;12.396;2022-08-19T01:45:24;19.30;83.10
70366;DHT22;57787;48.216;12.396;2022-08-19T01:47:52;19.40;83.00
70366;DHT22;57787;48.216;12.396;2022-08-19T01:50:28;19.40;83.00
70366;DHT22;57787;48.216;12.396;2022-08-19T01:52:55;19.40;82.90
70366;DHT22;57787;48.216;12.396;2022-08-19T01:55:33;19.50;82.60
70366;DHT22;57787;48.216;12.396;2022-08-19T01:58:01;19.50;82.50
70366;DHT22;57787;48.216;12.396;2022-08-19T02:00:29;19.50;82.50
70366;DHT22;57787;48.216;12.396;2022-08-19T02:02:56;19.40;82.60
70366;DHT22;57787;48.216;12.396;2022-08-19T02:05:23;19.50;81.60
70366;DHT22;57787;48.216;12.396;2022-08-19T02:07:50;19.50;81.80
70366;DHT22;57787;48.216;12.396;2022-08-19T02:10:18;19.50;82.20
70366;DHT22;57787;48.216;12.396;2022-08-19T02:12:45;19.50;81.90
70366;DHT22;57787;48.216;12.396;2022-08-19T02:15:13;19.50;81.90
70366;DHT22;57787;48.216;12.396;2022-08-19T02:17:40;19.50;81.80
70366;DHT22;57787;48.216;12.396;2022-08-19T02:20:07;19.50;82.00
70366;DHT22;57787;48.216;12.396;2022-08-19T02:22:34;19.50;82.30
70366;DHT22;57787;48.216;12.396;2022-08-19T02:25:01;19.50;81.70
70366;DHT22;57787;48.216;12.396;2022-08-19T02:27:28;19.50;81.80
70366;DHT22;57787;48.216;12.396;2022-08-19T02:29:56;19.50;81.60
70366;DHT22;57787;48.216;12.396;2022-08-19T02:32:22;19.50;82.10
70366;DHT22;57787;48.216;12.396;2022-08-19T02:34:51;19.50;82.00
70366;DHT22;57787;48.216;12.396;2022-08-19T02:37:18;19.40;82.30
70366;DHT22;57787;48.216;12.396;2022-08-19T02:40:04;19.40;82.50
70366;DHT22;57787;48.216;12.396;2022-08-19T02:42:38;19.40;82.90
70366;DHT22;57787;48.216;12.396;2022-08-19T02:45:07;19.30;82.90
70366;DHT22;57787;48.216;12.396;2022-08-19T02:47:34;19.40;82.90
70366;DHT22;57787;48.216;12.396;2022-08-19T02:50:01;19.30;82.80
70366;DHT22;57787;48.216;12.396;2022-08-19T02:52:28;19.40;82.80
70366;DHT22;57787;48.216;12.396;2022-08-19T02:54:55;19.40;82.60
70366;DHT22;57787;48.216;12.396;2022-08-19T02:57:23;19.40;83.00
70366;DHT22;57787;48.216;12.396;2022-08-19T02:59:50;19.40;83.10
70366;DHT22;57787;48.216;12.396;2022-08-19T03:02:17;19.40;82.90
70366;DHT22;57787;48.216;12.396;2022-08-19T03:04:44;19.40;83.00
70366;DHT22;57787;48.216;12.396;2022-08-19T03:07:12;19.40;82.40
70366;DHT22;57787;48.216;12.396;2022-08-19T03:09:40;19.50;83.00
70366;DHT22;57787;48.216;12.396;2022-08-19T03:12:06;19.50;82.80
70366;DHT22;57787;48.216;12.396;2022-08-19T03:14:33;19.50;82.70
70366;DHT22;57787;48.216;12.396;2022-08-19T03:17:01;19.50;82.60
70366;DHT22;57787;48.216;12.396;2022-08-19T03:19:28;19.50;83.00
70366;DHT22;57787;48.216;12.396;2022-08-19T03:21:54;19.50;83.10
70366;DHT22;57787;48.216;12.396;2022-08-19T03:24:22;19.50;83.00
70366;DHT22;57787;48.216;12.396;2022-08-19T03:26:49;19.50;82.80
70366;DHT22;57787;48.216;12.396;2022-08-19T03:29:18;19.50;83.00
70366;DHT22;57787;48.216;12.396;2022-08-19T03:31:56;19.50;83.30
70366;DHT22;57787;48.216;12.396;2022-08-19T03:34:24;19.50;82.90
70366;DHT22;57787;48.216;12.396;2022-08-19T03:36:55;19.50;83.00
70366;DHT22;57787;48.216;12.396;2022-08-19T03:39:23;19.50;82.80
70366;DHT22;57787;48.216;12.396;2022-08-19T03:41:51;19.50;82.90
70366;DHT22;57787;48.216;12.396;2022-08-19T03:44:38;19.50;82.50
70366;DHT22;57787;48.216;12.396;2022-08-19T03:47:05;19.60;82.50
70366;DHT22;57787;48.216;12.396;2022-08-19T03:49:32;19.60;82.30
70366;DHT22;57787;48.216;12.396;2022-08-19T03:52:02;19.60;82.00
70366;DHT22;57787;48.216;12.396;2022-08-19T03:54:31;19.60;82.10
70366;DHT22;57787;48.216;12.396;2022-08-19T03:56:58;19.60;82.30
70366;DHT22;57787;48.216;12.396;2022-08-19T03:59:26;19.60;82.50
70366;DHT22;57787;48.216;12.396;2022-08-19T04:01:54;19.60;82.00
70366;DHT22;57787;48.216;12.396;2022-08-19T04:04:21;19.50;82.00
70366;DHT22;57787;48.216;12.396;2022-08-19T04:06:49;19.60;82.00
70366;DHT22;57787;48.216;12.396;2022-08-19T04:09:17;19.60;82.00
70366;DHT22;57787;48.216;12.396;2022-08-19T04:11:46;19.60;81.90
70366;DHT22;57787;48.216;12.396;2022-08-19T04:14:15;19.60;81.90
70366;DHT22;57787;48.216;12.396;2022-08-19T04:16:42;19.50;81.70
70366;DHT22;57787;48.216;12.396;2022-08-19T04:19:10;19.50;81.80
70366;DHT22;57787;48.216;12.396;2022-08-19T04:21:37;19.50;82.00
70366;DHT22;57787;48.216;12.396;2022-08-19T04:24:04;19.50;81.90
70366;DHT22;57787;48.216;12.396;2022-08-19T04:26:32;19.50;81.70
70366;DHT22;57787;48.216;12.396;2022-08-19T04:29:00;19.60;81.80
70366;DHT22;57787;48.216;12.396;2022-08-19T04:31:29;19.60;81.80
70366;DHT22;57787;48.216;12.396;2022-08-19T04:33:56;19.60;81.80
70366;DHT22;57787;48.216;12.396;2022-08-19T04:36:25;19.50;81.80
70366;DHT22;57787;48.216;12.396;2022-08-19T04:38:56;19.50;82.00
70366;DHT22;57787;48.216;12.396;2022-08-19T04:41:24;19.60;81.90
70366;DHT22;57787;48.216;12.396;2022-08-19T04:44:09;19.50;81.70
70366;DHT22;57787;48.216;12.396;2022-08-19T04:46:36;19.60;81.70
70366;DHT22;57787;48.216;12.396;2022-08-19T04:49:07;19.60;81.80
70366;DHT22;57787;48.216;12.396;2022-08-19T04:51:40;19.60;82.20
70366;DHT22;57787;48.216;12.396;2022-08-19T04:54:07;19.60;81.80
70366;DHT22;57787;48.216;12.396;2022-08-19T04:56:33;19.60;82.00
70366;DHT22;57787;48.216;12.396;2022-08-19T04:59:00;19.60;81.80
70366;DHT22;57787;48.216;12.396;2022-08-19T05:01:31;19.60;81.90
70366;DHT22;57787;48.216;12.396;2022-08-19T05:04:03;19.60;81.80
70366;DHT22;57787;48.216;12.396;2022-08-19T05:06:31;19.60;82.10
70366;DHT22;57787;48.216;12.396;2022-08-19T05:09:00;19.60;82.20
70366;DHT22;57787;48.216;12.396;2022-08-19T05:11:28;19.60;82.40
70366;DHT22;57787;48.216;12.396;2022-08-19T05:13:56;19.60;82.30
70366;DHT22;57787;48.216;12.396;2022-08-19T05:16:25;19.60;82.10
70366;DHT22;57787;48.216;12.396;2022-08-19T05:18:52;19.70;82.20
70366;DHT22;57787;48.216;12.396;2022-08-19T05:21:38;19.60;82.20
70366;DHT22;57787;48.216;12.396;2022-08-19T05:24:24;19.60;82.60
70366;DHT22;57787;48.216;12.396;2022-08-19T05:26:54;19.60;82.60
70366;DHT22;57787;48.216;12.396;2022-08-19T05:29:24;19.60;82.70
70366;DHT22;57787;48.216;12.396;2022-08-19T05:31:57;19.70;83.00
70366;DHT22;57787;48.216;12.396;2022-08-19T05:34:25;19.60;83.40
70366;DHT22;57787;48.216;12.396;2022-08-19T05:36:53;19.70;83.60
70366;DHT22;57787;48.216;12.396;2022-08-19T05:39:23;19.70;83.50
70366;DHT22;57787;48.216;12.396;2022-08-19T05:41:53;19.70;83.90
70366;DHT22;57787;48.216;12.396;2022-08-19T05:44:21;19.70;84.00
70366;DHT22;57787;48.216;12.396;2022-08-19T05:46:48;19.70;83.90
70366;DHT22;57787;48.216;12.396;2022-08-19T05:49:15;19.70;83.80
70366;DHT22;57787;48.216;12.396;2022-08-19T05:51:42;19.70;83.50
70366;DHT22;57787;48.216;12.396;2022-08-19T05:54:09;19.70;84.20
70366;DHT22;57787;48.216;12.396;2022-08-19T05:56:37;19.80;84.00
70366;DHT22;57787;48.216;12.396;2022-08-19T05:59:05;19.80;83.90
70366;DHT22;57787;48.216;12.396;2022-08-19T06:01:36;19.90;84.30
70366;DHT22;57787;48.216;12.396;2022-08-19T06:04:03;19.90;84.10
70366;DHT22;57787;48.216;12.396;2022-08-19T06:06:30;19.90;84.00
70366;DHT22;57787;48.216;12.396;2022-08-19T06:08:57;20.00;83.90
70366;DHT22;57787;48.216;12.396;2022-08-19T06:13:53;20.00;82.90
70366;DHT22;57787;48.216;12.396;2022-08-19T06:16:25;20.00;82.90
70366;DHT22;57787;48.216;12.396;2022-08-19T06:18:52;20.00;83.10
70366;DHT22;57787;48.216;12.396;2022-08-19T06:21:20;19.90;82.60
70366;DHT22;57787;48.216;12.396;2022-08-19T06:23:47;19.90;82.80
70366;DHT22;57787;48.216;12.396;2022-08-19T06:26:14;20.00;83.00
70366;DHT22;57787;48.216;12.396;2022-08-19T06:28:42;19.90;82.70
70366;DHT22;57787;48.216;12.396;2022-08-19T06:31:23;19.90;82.50
70366;DHT22;57787;48.216;12.396;2022-08-19T06:33:50;19.90;82.80
70366;DHT22;57787;48.216;12.396;2022-08-19T06:36:18;20.00;82.40
70366;DHT22;57787;48.216;12.396;2022-08-19T06:38:49;20.00;82.20
70366;DHT22;57787;48.216;12.396;2022-08-19T06:41:16;20.10;82.10
70366;DHT22;57787;48.216;12.396;2022-08-19T06:43:43;20.00;81.70
70366;DHT22;57787;48.216;12.396;2022-08-19T06:46:13;20.10;82.40
70366;DHT22;57787;48.216;12.396;2022-08-19T06:48:40;20.20;81.90
70366;DHT22;57787;48.216;12.396;2022-08-19T06:51:12;20.20;82.50
70366;DHT22;57787;48.216;12.396;2022-08-19T06:53:48;20.10;81.90
70366;DHT22;57787;48.216;12.396;2022-08-19T06:56:16;20.10;81.80
70366;DHT22;57787;48.216;12.396;2022-08-19T06:58:43;20.20;82.10
70366;DHT22;57787;48.216;12.396;2022-08-19T07:01:09;20.20;81.90
70366;DHT22;57787;48.216;12.396;2022-08-19T07:03:37;20.30;82.30
70366;DHT22;57787;48.216;12.396;2022-08-19T07:08:47;20.30;81.60
70366;DHT22;57787;48.216;12.396;2022-08-19T07:11:15;20.40;80.60
70366;DHT22;57787;48.216;12.396;2022-08-19T07:13:44;20.40;80.80
70366;DHT22;57787;48.216;12.396;2022-08-19T07:16:13;20.40;80.70
70366;DHT22;57787;48.216;12.396;2022-08-19T07:18:46;20.50;80.80
70366;DHT22;57787;48.216;12.396;2022-08-19T07:21:19;20.50;81.30
70366;DHT22;57787;48.216;12.396;2022-08-19T07:23:48;20.70;79.90
70366;DHT22;57787;48.216;12.396;2022-08-19T07:26:17;20.80;80.30
70366;DHT22;57787;48.216;12.396;2022-08-19T07:28:53;20.80;79.10
70366;DHT22;57787;48.216;12.396;2022-08-19T07:31:22;21.00;79.20
70366;DHT22;57787;48.216;12.396;2022-08-19T07:33:50;21.10;78.90
70366;DHT22;57787;48.216;12.396;2022-08-19T07:36:22;21.30;78.10
70366;DHT22;57787;48.216;12.396;2022-08-19T07:38:51;21.40;77.70
70366;DHT22;57787;48.216;12.396;2022-08-19T07:41:22;21.50;77.20
70366;DHT22;57787;48.216;12.396;2022-08-19T07:43:49;21.60;77.20
70366;DHT22;57787;48.216;12.396;2022-08-19T07:46:16;21.70;76.60
70366;DHT22;57787;48.216;12.396;2022-08-19T07:48:44;21.80;76.50
70366;DHT22;57787;48.216;12.396;2022-08-19T07:51:14;21.80;76.20
70366;DHT22;57787;48.216;12.396;2022-08-19T07:54:02;21.80;76.40
70366;DHT22;57787;48.216;12.396;2022-08-19T07:56:29;22.00;75.80
70366;DHT22;57787;48.216;12.396;2022-08-19T07:58:56;22.20;76.20
70366;DHT22;57787;48.216;12.396;2022-08-19T08:01:24;22.30;76.00
70366;DHT22;57787;48.216;12.396;2022-08-19T08:03:51;22.60;75.30
70366;DHT22;57787;48.216;12.396;2022-08-19T08:06:37;22.90;74.00
70366;DHT22;57787;48.216;12.396;2022-08-19T08:09:24;23.00;72.30
70366;DHT22;57787;48.216;12.396;2022-08-19T08:14:26;23.30;71.10
70366;DHT22;57787;48.216;12.396;2022-08-19T08:16:55;23.40;70.80
70366;DHT22;57787;48.216;12.396;2022-08-19T08:19:25;23.40;70.20
70366;DHT22;57787;48.216;12.396;2022-08-19T08:21:53;23.30;70.50
70366;DHT22;57787;48.216;12.396;2022-08-19T08:24:20;23.30;70.30
70366;DHT22;57787;48.216;12.396;2022-08-19T08:26:54;23.30;71.40
70366;DHT22;57787;48.216;12.396;2022-08-19T08:29:23;23.30;71.30
70366;DHT22;57787;48.216;12.396;2022-08-19T08:31:51;23.10;71.40
70366;DHT22;57787;48.216;12.396;2022-08-19T08:34:25;23.00;71.90
70366;DHT22;57787;48.216;12.396;2022-08-19T08:36:52;22.90;71.80
70366;DHT22;57787;48.216;12.396;2022-08-19T08:39:19;22.80;71.40
70366;DHT22;57787;48.216;12.396;2022-08-19T08:41:55;22.60;72.90
70366;DHT22;57787;48.216;12.396;2022-08-19T08:47:11;22.40;73.40
70366;DHT22;57787;48.216;12.396;2022-08-19T08:49:54;22.30;74.00
70366;DHT22;57787;48.216;12.396;2022-08-19T08:53:05;22.10;74.40
70366;DHT22;57787;48.216;12.396;2022-08-19T08:55:17;21.90;75.90
70366;DHT22;57787;48.216;12.396;2022-08-19T09:00:19;21.50;78.80
70366;DHT22;57787;48.216;12.396;2022-08-19T09:02:47;21.30;79.70
70366;DHT22;57787;48.216;12.396;2022-08-19T09:05:19;21.20;80.60
70366;DHT22;57787;48.216;12.396;2022-08-19T09:08:06;21.10;80.80
70366;DHT22;57787;48.216;12.396;2022-08-19T09:10:43;21.00;81.70
70366;DHT22;57787;48.216;12.396;2022-08-19T09:13:17;21.00;83.00
70366;DHT22;57787;48.216;12.396;2022-08-19T09:15:59;20.90;83.30
70366;DHT22;57787;48.216;12.396;2022-08-19T09:21:10;20.90;83.20
70366;DHT22;57787;48.216;12.396;2022-08-19T09:23:36;21.00;83.70
70366;DHT22;57787;48.216;12.396;2022-08-19T09:26:08;21.00;83.10
70366;DHT22;57787;48.216;12.396;2022-08-19T09:28:37;21.10;83.90
70366;DHT22;57787;48.216;12.396;2022-08-19T09:31:04;21.10;83.90
70366;DHT22;57787;48.216;12.396;2022-08-19T09:33:33;21.30;84.40
70366;DHT22;57787;48.216;12.396;2022-08-19T09:36:02;21.40;84.20
70366;DHT22;57787;48.216;12.396;2022-08-19T09:38:34;21.70;84.30
70366;DHT22;57787;48.216;12.396;2022-08-19T09:41:23;21.90;83.50
70366;DHT22;57787;48.216;12.396;2022-08-19T09:43:51;22.00;82.10
70366;DHT22;57787;48.216;12.396;2022-08-19T09:46:23;22.10;81.70
70366;DHT22;57787;48.216;12.396;2022-08-19T09:48:52;22.00;80.70
70366;DHT22;57787;48.216;12.396;2022-08-19T09:51:20;22.00;80.10
70366;DHT22;57787;48.216;12.396;2022-08-19T09:53:50;21.90;80.20
70366;DHT22;57787;48.216;12.396;2022-08-19T09:56:19;21.90;81.00
70366;DHT22;57787;48.216;12.396;2022-08-19T09:58:47;22.00;81.40
70366;DHT22;57787;48.216;12.396;2022-08-19T10:01:19;22.10;81.60
70366;DHT22;57787;48.216;12.396;2022-08-19T10:03:47;22.30;81.40
70366;DHT22;57787;48.216;12.396;2022-08-19T10:06:15;22.60;80.70
70366;DHT22;57787;48.216;12.396;2022-08-19T10:09:10;22.80;81.00
70366;DHT22;57787;48.216;12.396;2022-08-19T10:11:39;23.10;79.60
70366;DHT22;57787;48.216;12.396;2022-08-19T10:14:18;23.20;79.20
70366;DHT22;57787;48.216;12.396;2022-08-19T10:16:48;23.50;78.00
70366;DHT22;57787;48.216;12.396;2022-08-19T10:19:15;23.70;77.90
70366;DHT22;57787;48.216;12.396;2022-08-19T10:21:52;23.80;77.10
70366;DHT22;57787;48.216;12.396;2022-08-19T10:24:19;24.00;77.00
70366;DHT22;57787;48.216;12.396;2022-08-19T10:26:47;24.10;76.40
70366;DHT22;57787;48.216;12.396;2022-08-19T10:29:24;24.40;74.60
70366;DHT22;57787;48.216;12.396;2022-08-19T10:31:58;24.40;75.00
70366;DHT22;57787;48.216;12.396;2022-08-19T10:34:28;24.70;73.50
70366;DHT22;57787;48.216;12.396;2022-08-19T10:36:56;24.70;73.20
70366;DHT22;57787;48.216;12.396;2022-08-19T10:39:27;24.80;72.00
70366;DHT22;57787;48.216;12.396;2022-08-19T10:42:08;24.90;72.10
70366;DHT22;57787;48.216;12.396;2022-08-19T10:44:38;25.20;72.40
70366;DHT22;57787;48.216;12.396;2022-08-19T10:47:05;25.50;72.70
70366;DHT22;57787;48.216;12.396;2022-08-19T10:49:50;25.90;71.50
70366;DHT22;57787;48.216;12.396;2022-08-19T10:52:38;26.00;69.90
70366;DHT22;57787;48.216;12.396;2022-08-19T10:55:17;25.90;68.60
70366;DHT22;57787;48.216;12.396;2022-08-19T10:58:03;25.80;68.00
70366;DHT22;57787;48.216;12.396;2022-08-19T11:00:30;26.00;68.70
70366;DHT22;57787;48.216;12.396;2022-08-19T11:02:58;26.00;68.00
70366;DHT22;57787;48.216;12.396;2022-08-19T11:05:24;26.10;68.80
70366;DHT22;57787;48.216;12.396;2022-08-19T11:07:51;26.20;65.20
70366;DHT22;57787;48.216;12.396;2022-08-19T11:10:18;26.30;67.40
70366;DHT22;57787;48.216;12.396;2022-08-19T11:12:47;26.50;65.60
70366;DHT22;57787;48.216;12.396;2022-08-19T11:18:09;26.60;64.00
70366;DHT22;57787;48.216;12.396;2022-08-19T11:20:39;26.60;64.90
70366;DHT22;57787;48.216;12.396;2022-08-19T11:23:05;26.50;62.40
70366;DHT22;57787;48.216;12.396;2022-08-19T11:25:32;26.60;62.50
70366;DHT22;57787;48.216;12.396;2022-08-19T11:28:01;26.60;63.80
70366;DHT22;57787;48.216;12.396;2022-08-19T11:30:27;26.80;63.90
70366;DHT22;57787;48.216;12.396;2022-08-19T11:32:54;26.90;64.10
70366;DHT22;57787;48.216;12.396;2022-08-19T11:35:21;26.80;63.60
70366;DHT22;57787;48.216;12.396;2022-08-19T11:37:49;26.80;64.20
70366;DHT22;57787;48.216;12.396;2022-08-19T11:40:18;26.50;63.50
70366;DHT22;57787;48.216;12.396;2022-08-19T11:42:45;26.30;62.60
70366;DHT22;57787;48.216;12.396;2022-08-19T11:45:24;26.10;64.80
70366;DHT22;57787;48.216;12.396;2022-08-19T11:47:51;26.00;64.80
70366;DHT22;57787;48.216;12.396;2022-08-19T11:50:18;26.00;64.70
70366;DHT22;57787;48.216;12.396;2022-08-19T11:52:45;25.80;66.10
70366;DHT22;57787;48.216;12.396;2022-08-19T11:55:12;25.90;66.90
70366;DHT22;57787;48.216;12.396;2022-08-19T11:57:40;25.80;65.90
70366;DHT22;57787;48.216;12.396;2022-08-19T12:00:10;25.80;66.60
70366;DHT22;57787;48.216;12.396;2022-08-19T12:02:40;26.00;67.40
70366;DHT22;57787;48.216;12.396;2022-08-19T12:05:07;26.20;67.00
70366;DHT22;57787;48.216;12.396;2022-08-19T12:07:38;26.20;64.50
70366;DHT22;57787;48.216;12.396;2022-08-19T12:10:08;26.30;64.90
70366;DHT22;57787;48.216;12.396;2022-08-19T12:12:36;26.30;65.70
70366;DHT22;57787;48.216;12.396;2022-08-19T12:15:07;26.40;63.90
70366;DHT22;57787;48.216;12.396;2022-08-19T12:17:34;26.60;65.00
70366;DHT22;57787;48.216;12.396;2022-08-19T12:20:01;26.80;64.40
70366;DHT22;57787;48.216;12.396;2022-08-19T12:22:27;26.80;62.20
70366;DHT22;57787;48.216;12.396;2022-08-19T12:24:54;26.80;63.20
70366;DHT22;57787;48.216;12.396;2022-08-19T12:27:21;26.80;61.90
70366;DHT22;57787;48.216;12.396;2022-08-19T12:30:07;26.80;62.80
70366;DHT22;57787;48.216;12.396;2022-08-19T12:32:36;26.90;62.30
70366;DHT22;57787;48.216;12.396;2022-08-19T12:35:06;27.00;61.60
70366;DHT22;57787;48.216;12.396;2022-08-19T12:37:33;26.90;61.00
70366;DHT22;57787;48.216;12.396;2022-08-19T12:40:00;27.00;62.00
70366;DHT22;57787;48.216;12.396;2022-08-19T12:42:27;27.00;60.70
70366;DHT22;57787;48.216;12.396;2022-08-19T12:44:54;26.80;60.70
70366;DHT22;57787;48.216;12.396;2022-08-19T12:47:21;26.80;61.30
70366;DHT22;57787;48.216;12.396;2022-08-19T12:49:48;26.60;59.50
70366;DHT22;57787;48.216;12.396;2022-08-19T12:52:23;26.40;61.10
70366;DHT22;57787;48.216;12.396;2022-08-19T12:54:52;26.40;60.40
70366;DHT22;57787;48.216;12.396;2022-08-19T12:57:23;26.30;61.80
70366;DHT22;57787;48.216;12.396;2022-08-19T13:00:01;26.20;61.60
70366;DHT22;57787;48.216;12.396;2022-08-19T13:02:31;26.10;61.80
70366;DHT22;57787;48.216;12.396;2022-08-19T13:05:05;26.10;62.80
70366;DHT22;57787;48.216;12.396;2022-08-19T13:07:35;26.10;62.90
70366;DHT22;57787;48.216;12.396;2022-08-19T13:10:02;26.10;62.70
70366;DHT22;57787;48.216;12.396;2022-08-19T13:12:30;26.00;63.40
70366;DHT22;57787;48.216;12.396;2022-08-19T13:14:57;26.20;65.10
70366;DHT22;57787;48.216;12.396;2022-08-19T13:17:26;26.10;62.40
70366;DHT22;57787;48.216;12.396;2022-08-19T13:19:53;26.10;61.70
70366;DHT22;57787;48.216;12.396;2022-08-19T13:22:20;26.10;62.00
70366;DHT22;57787;48.216;12.396;2022-08-19T13:24:47;26.20;61.70
70366;DHT22;57787;48.216;12.396;2022-08-19T13:27:14;26.30;62.50
70366;DHT22;57787;48.216;12.396;2022-08-19T13:29:42;26.40;62.70
70366;DHT22;57787;48.216;12.396;2022-08-19T13:32:28;26.30;62.80
70366;DHT22;57787;48.216;12.396;2022-08-19T13:35:23;26.30;63.50
70366;DHT22;57787;48.216;12.396;2022-08-19T13:37:50;26.40;62.70
70366;DHT22;57787;48.216;12.396;2022-08-19T13:40:18;26.30;61.00
70366;DHT22;57787;48.216;12.396;2022-08-19T13:42:47;26.30;61.10
70366;DHT22;57787;48.216;12.396;2022-08-19T13:45:21;26.30;61.50
70366;DHT22;57787;48.216;12.396;2022-08-19T13:47:49;26.30;62.30
70366;DHT22;57787;48.216;12.396;2022-08-19T13:50:24;26.30;65.00
70366;DHT22;57787;48.216;12.396;2022-08-19T13:52:55;26.20;62.80
70366;DHT22;57787;48.216;12.396;2022-08-19T13:55:22;26.20;63.90
70366;DHT22;57787;48.216;12.396;2022-08-19T13:57:51;26.30;62.60
70366;DHT22;57787;48.216;12.396;2022-08-19T14:00:20;26.30;65.60
70366;DHT22;57787;48.216;12.396;2022-08-19T14:02:47;26.30;62.50
70366;DHT22;57787;48.216;12.396;2022-08-19T14:05:18;26.30;63.50
70366;DHT22;57787;48.216;12.396;2022-08-19T14:07:45;26.20;63.40
70366;DHT22;57787;48.216;12.396;2022-08-19T14:10:12;26.20;64.30
70366;DHT22;57787;48.216;12.396;2022-08-19T14:12:39;26.20;63.90
70366;DHT22;57787;48.216;12.396;2022-08-19T14:15:07;26.10;62.20
70366;DHT22;57787;48.216;12.396;2022-08-19T14:17:37;26.00;60.90
70366;DHT22;57787;48.216;12.396;2022-08-19T14:20:04;25.90;61.40
70366;DHT22;57787;48.216;12.396;2022-08-19T14:22:37;25.80;62.30
70366;DHT22;57787;48.216;12.396;2022-08-19T14:25:05;25.80;62.50
70366;DHT22;57787;48.216;12.396;2022-08-19T14:27:33;25.80;65.00
70366;DHT22;57787;48.216;12.396;2022-08-19T14:30:01;25.70;63.60
70366;DHT22;57787;48.216;12.396;2022-08-19T14:32:28;25.60;63.80
70366;DHT22;57787;48.216;12.396;2022-08-19T14:34:55;25.50;63.30
70366;DHT22;57787;48.216;12.396;2022-08-19T14:37:22;25.40;62.90
70366;DHT22;57787;48.216;12.396;2022-08-19T14:39:50;25.30;64.60
70366;DHT22;57787;48.216;12.396;2022-08-19T14:42:17;25.30;64.70
70366;DHT22;57787;48.216;12.396;2022-08-19T14:44:44;25.30;66.40
70366;DHT22;57787;48.216;12.396;2022-08-19T14:47:10;25.30;66.00
70366;DHT22;57787;48.216;12.396;2022-08-19T14:49:37;25.20;65.20
70366;DHT22;57787;48.216;12.396;2022-08-19T14:52:11;25.20;65.10
70366;DHT22;57787;48.216;12.396;2022-08-19T14:54:37;25.10;65.90
70366;DHT22;57787;48.216;12.396;2022-08-19T14:57:04;25.00;65.20
70366;DHT22;57787;48.216;12.396;2022-08-19T14:59:31;25.00;65.00
70366;DHT22;57787;48.216;12.396;2022-08-19T15:01:58;25.00;65.20
70366;DHT22;57787;48.216;12.396;2022-08-19T15:04:46;24.90;64.10
70366;DHT22;57787;48.216;12.396;2022-08-19T15:07:23;24.90;64.80
70366;DHT22;57787;48.216;12.396;2022-08-19T15:09:54;24.80;64.50
70366;DHT22;57787;48.216;12.396;2022-08-19T15:12:21;24.80;65.50
70366;DHT22;57787;48.216;12.396;2022-08-19T15:14:49;24.90;66.50
70366;DHT22;57787;48.216;12.396;2022-08-19T15:17:22;24.80;64.90
70366;DHT22;57787;48.216;12.396;2022-08-19T15:20:09;24.70;65.00
70366;DHT22;57787;48.216;12.396;2022-08-19T15:22:36;24.60;66.30
70366;DHT22;57787;48.216;12.396;2022-08-19T15:25:04;24.60;66.60
70366;DHT22;57787;48.216;12.396;2022-08-19T15:27:31;24.60;65.20
70366;DHT22;57787;48.216;12.396;2022-08-19T15:29:58;24.40;67.00
70366;DHT22;57787;48.216;12.396;2022-08-19T15:32:27;24.40;67.20
70366;DHT22;57787;48.216;12.396;2022-08-19T15:34:54;24.30;68.10
70366;DHT22;57787;48.216;12.396;2022-08-19T15:37:21;24.20;69.60
70366;DHT22;57787;48.216;12.396;2022-08-19T15:39:49;24.10;68.70
70366;DHT22;57787;48.216;12.396;2022-08-19T15:42:17;24.00;70.70
70366;DHT22;57787;48.216;12.396;2022-08-19T15:44:55;23.90;70.60
70366;DHT22;57787;48.216;12.396;2022-08-19T15:47:28;23.90;71.60
70366;DHT22;57787;48.216;12.396;2022-08-19T15:50:05;23.80;72.50